createdAt,value
2017-05-02T00:00:28.590Z,1012.3
2017-05-02T00:01:37.551Z,1012.31
2017-05-02T00:02:46.594Z,1012.34
2017-05-02T00:03:55.807Z,1012.31
2017-05-02T00:05:04.794Z,1012.32
2017-05-02T00:06:13.756Z,1012.31
2017-05-02T00:07:22.717Z,1012.31
2017-05-02T00:08:31.675Z,1012.34
2017-05-02T00:09:40.888Z,1012.25
2017-05-02T00:10:49.845Z,1012.28
2017-05-02T00:11:58.796Z,1012.29
2017-05-02T00:13:07.768Z,1012.26
2017-05-02T00:14:16.731Z,1012.23
2017-05-02T00:15:26.274Z,1012.25
2017-05-02T00:16:35.403Z,1012.22
2017-05-02T00:17:44.676Z,1012.2
2017-05-02T00:18:53.724Z,1012.19
2017-05-02T00:20:02.686Z,1012.22
2017-05-02T00:21:11.889Z,1012.23
2017-05-02T00:22:20.847Z,1012.2
2017-05-02T00:23:29.798Z,1012.21
2017-05-02T00:24:38.846Z,1012.24
2017-05-02T00:25:47.800Z,1012.24
2017-05-02T00:26:57.043Z,1012.19
2017-05-02T00:28:05.999Z,1012.2
2017-05-02T00:29:14.955Z,1012.25
2017-05-02T00:30:23.917Z,1012.18
2017-05-02T00:31:32.869Z,1012.23
2017-05-02T00:32:42.077Z,1012.21
2017-05-02T00:33:51.041Z,1012.18
2017-05-02T00:34:59.994Z,1012.18
2017-05-02T00:36:08.944Z,1012.29
2017-05-02T00:37:18.233Z,1012.29
2017-05-02T00:38:27.763Z,1012.22
2017-05-02T00:39:36.719Z,1012.24
2017-05-02T00:40:45.759Z,1012.26
2017-05-02T00:41:54.711Z,1012.29
2017-05-02T00:43:03.671Z,1012.28
2017-05-02T00:44:12.968Z,1012.3
2017-05-02T00:45:22.014Z,1012.27
2017-05-02T00:46:30.967Z,1012.25
2017-05-02T00:47:39.920Z,1012.29
2017-05-02T00:48:48.877Z,1012.32
2017-05-02T00:49:58.081Z,1012.32
2017-05-02T00:51:07.043Z,1012.35
2017-05-02T00:52:15.993Z,1012.27
2017-05-02T00:53:24.954Z,1012.29
2017-05-02T00:54:33.913Z,1012.27
2017-05-02T00:55:43.123Z,1012.26
2017-05-02T00:56:52.076Z,1012.27
2017-05-02T00:58:01.027Z,1012.23
2017-05-02T00:59:09.987Z,1012.25
2017-05-02T01:00:18.951Z,1012.3
2017-05-02T01:01:28.248Z,1012.25
2017-05-02T01:02:37.294Z,1012.26
2017-05-02T01:03:46.256Z,1012.22
2017-05-02T01:04:55.213Z,1012.24
2017-05-02T01:06:04.172Z,1012.22
2017-05-02T01:07:13.428Z,1012.24
2017-05-02T01:08:22.384Z,1012.23
2017-05-02T01:09:31.435Z,1012.25
2017-05-02T01:10:40.395Z,1012.21
2017-05-02T01:11:49.347Z,1012.19
2017-05-02T01:12:58.551Z,1012.22
2017-05-02T01:14:07.506Z,1012.23
2017-05-02T01:15:16.464Z,1012.27
2017-05-02T01:16:25.419Z,1012.26
2017-05-02T01:17:34.373Z,1012.32
2017-05-02T01:18:43.586Z,1012.26
2017-05-02T01:19:52.557Z,1012.28
2017-05-02T01:21:01.513Z,1012.27
2017-05-02T01:22:10.886Z,1012.25
2017-05-02T01:23:19.844Z,1012.31
2017-05-02T01:24:29.134Z,1012.25
2017-05-02T01:25:38.095Z,1012.26
2017-05-02T01:26:47.051Z,1012.25
2017-05-02T01:27:56.331Z,1012.23
2017-05-02T01:29:05.284Z,1012.24
2017-05-02T01:30:14.529Z,1012.28
2017-05-02T01:31:23.485Z,1012.23
2017-05-02T01:32:32.447Z,1012.28
2017-05-02T01:33:41.495Z,1012.23
2017-05-02T01:34:50.454Z,1012.25
2017-05-02T01:35:59.661Z,1012.27
2017-05-02T01:37:08.707Z,1012.29
2017-05-02T01:38:17.662Z,1012.3
2017-05-02T01:39:26.621Z,1012.3
2017-05-02T01:40:35.672Z,1012.33
2017-05-02T01:41:44.962Z,1012.3
2017-05-02T01:42:53.920Z,1012.33
2017-05-02T01:44:03.209Z,1012.35
2017-05-02T01:45:12.199Z,1012.3
2017-05-02T01:46:21.327Z,1012.39
2017-05-02T01:47:30.534Z,1012.34
2017-05-02T01:48:39.490Z,1012.37
2017-05-02T01:49:48.450Z,1012.41
2017-05-02T01:50:57.503Z,1012.34
2017-05-02T01:52:06.465Z,1012.35
2017-05-02T01:53:15.670Z,1012.27
2017-05-02T01:54:24.627Z,1012.35
2017-05-02T01:55:33.583Z,1012.36
2017-05-02T01:56:42.629Z,1012.33
2017-05-02T01:57:51.665Z,1012.37
2017-05-02T01:59:00.871Z,1012.37
2017-05-02T02:00:09.835Z,1012.33
2017-05-02T02:01:18.790Z,1012.32
2017-05-02T02:02:27.741Z,1012.29
2017-05-02T02:03:36.781Z,1012.31
2017-05-02T02:04:45.987Z,1012.27
2017-05-02T02:05:55.117Z,1012.39
2017-05-02T02:07:04.071Z,1012.25
2017-05-02T02:08:13.118Z,1012.23
2017-05-02T02:09:22.073Z,1012.26
2017-05-02T02:10:31.292Z,1012.27
2017-05-02T02:11:40.336Z,1012.24
2017-05-02T02:12:49.290Z,1012.25
2017-05-02T02:13:58.249Z,1012.32
2017-05-02T02:15:07.208Z,1012.22
2017-05-02T02:16:16.414Z,1012.23
2017-05-02T02:17:25.374Z,1012.25
2017-05-02T02:18:34.333Z,1012.28
2017-05-02T02:19:43.289Z,1012.25
2017-05-02T02:20:52.332Z,1012.25
2017-05-02T02:22:01.626Z,1012.22
2017-05-02T02:23:10.586Z,1012.23
2017-05-02T02:24:19.540Z,1012.2
2017-05-02T02:25:28.498Z,1012.18
2017-05-02T02:26:37.452Z,1012.17
2017-05-02T02:27:46.662Z,1012.17
2017-05-02T02:28:55.628Z,1012.19
2017-05-02T02:30:04.671Z,1012.16
2017-05-02T02:31:13.625Z,1012.16
2017-05-02T02:32:22.575Z,1012.15
2017-05-02T02:33:31.778Z,1012.15
2017-05-02T02:34:40.828Z,1012.18
2017-05-02T02:35:49.785Z,1012.15
2017-05-02T02:36:58.739Z,1012.09
2017-05-02T02:38:07.692Z,1012.07
2017-05-02T02:39:16.899Z,1012.13
2017-05-02T02:40:25.850Z,1012.1
2017-05-02T02:41:35.137Z,1012.12
2017-05-02T02:42:44.091Z,1012.11
2017-05-02T02:43:53.051Z,1012.1
2017-05-02T02:45:02.260Z,1012.11
2017-05-02T02:46:11.386Z,1012.13
2017-05-02T02:47:20.339Z,1012.07
2017-05-02T02:48:29.290Z,1012.16
2017-05-02T02:49:38.244Z,1012.06
2017-05-02T02:50:47.452Z,1012.05
2017-05-02T02:51:56.733Z,1011.98
2017-05-02T02:53:05.695Z,1012
2017-05-02T02:54:14.653Z,1012.03
2017-05-02T02:55:23.606Z,1012.03
2017-05-02T02:56:32.811Z,1012.03
2017-05-02T02:57:41.775Z,1012.08
2017-05-02T02:58:50.730Z,1011.99
2017-05-02T02:59:59.732Z,1012.12
2017-05-02T03:01:08.688Z,1012.11
2017-05-02T03:02:17.899Z,1012.09
2017-05-02T03:03:26.849Z,1012.11
2017-05-02T03:04:35.810Z,1012.09
2017-05-02T03:05:44.763Z,1012.08
2017-05-02T03:06:53.802Z,1012.11
2017-05-02T03:08:03.003Z,1012.08
2017-05-02T03:09:11.958Z,1012.12
2017-05-02T03:10:21.349Z,1012.08
2017-05-02T03:11:30.299Z,1012.06
2017-05-02T03:12:39.262Z,1012.01
2017-05-02T03:13:48.461Z,1012
2017-05-02T03:14:57.419Z,1012.04
2017-05-02T03:16:06.374Z,1012.09
2017-05-02T03:17:15.330Z,1012.11
2017-05-02T03:18:24.374Z,1012.06
2017-05-02T03:19:33.635Z,1012.05
2017-05-02T03:20:42.589Z,1012.03
2017-05-02T03:21:51.542Z,1012.05
2017-05-02T03:23:00.497Z,1012.07
2017-05-02T03:24:09.542Z,1012.02
2017-05-02T03:25:18.800Z,1011.92
2017-05-02T03:26:27.935Z,1011.96
2017-05-02T03:27:36.976Z,1012.02
2017-05-02T03:28:45.931Z,1011.91
2017-05-02T03:29:54.888Z,1011.87
2017-05-02T03:31:04.146Z,1011.92
2017-05-02T03:32:13.110Z,1011.89
2017-05-02T03:33:22.064Z,1011.9
2017-05-02T03:34:31.112Z,1011.9
2017-05-02T03:35:40.147Z,1011.9
2017-05-02T03:36:49.402Z,1011.93
2017-05-02T03:37:58.440Z,1011.89
2017-05-02T03:39:07.482Z,1011.96
2017-05-02T03:40:16.759Z,1011.93
2017-05-02T03:41:25.711Z,1011.93
2017-05-02T03:42:34.912Z,1011.94
2017-05-02T03:43:43.862Z,1011.91
2017-05-02T03:44:52.814Z,1012.05
2017-05-02T03:46:01.859Z,1011.93
2017-05-02T03:47:10.813Z,1012.01
2017-05-02T03:48:20.153Z,1012.05
2017-05-02T03:49:29.110Z,1012.06
2017-05-02T03:50:38.065Z,1011.99
2017-05-02T03:51:47.019Z,1012.06
2017-05-02T03:52:55.972Z,1011.98
2017-05-02T03:54:05.182Z,1012.01
2017-05-02T03:55:14.477Z,1011.94
2017-05-02T03:56:23.432Z,1012
2017-05-02T03:57:32.387Z,1011.97
2017-05-02T03:58:41.345Z,1011.92
2017-05-02T03:59:50.556Z,1011.97
2017-05-02T04:00:59.617Z,1011.96
2017-05-02T04:02:08.601Z,1011.92
2017-05-02T04:03:17.559Z,1011.95
2017-05-02T04:04:26.517Z,1011.93
2017-05-02T04:05:35.867Z,1011.9
2017-05-02T04:06:44.824Z,1011.91
2017-05-02T04:07:53.778Z,1011.89
2017-05-02T04:09:02.740Z,1011.91
2017-05-02T04:10:11.782Z,1011.88
2017-05-02T04:11:21.040Z,1011.82
2017-05-02T04:12:29.989Z,1011.88
2017-05-02T04:13:38.948Z,1011.85
2017-05-02T04:14:47.907Z,1011.92
2017-05-02T04:15:56.864Z,1011.88
2017-05-02T04:17:06.114Z,1011.85
2017-05-02T04:18:15.070Z,1011.96
2017-05-02T04:19:24.029Z,1011.95
2017-05-02T04:20:32.986Z,1011.9
2017-05-02T04:21:41.938Z,1011.97
2017-05-02T04:22:51.138Z,1011.96
2017-05-02T04:24:00.100Z,1011.95
2017-05-02T04:25:09.056Z,1011.93
2017-05-02T04:26:18.094Z,1011.99
2017-05-02T04:27:27.044Z,1012
2017-05-02T04:28:36.304Z,1012.02
2017-05-02T04:29:45.256Z,1011.95
2017-05-02T04:30:54.207Z,1011.96
2017-05-02T04:32:03.161Z,1012.07
2017-05-02T04:33:12.126Z,1011.97
2017-05-02T04:34:21.557Z,1011.98
2017-05-02T04:35:30.601Z,1011.94
2017-05-02T04:36:39.552Z,1011.92
2017-05-02T04:37:48.506Z,1011.99
2017-05-02T04:38:57.789Z,1012.01
2017-05-02T04:40:07.078Z,1011.99
2017-05-02T04:41:16.033Z,1011.98
2017-05-02T04:42:24.987Z,1012.01
2017-05-02T04:43:33.947Z,1012.04
2017-05-02T04:44:42.902Z,1012.06
2017-05-02T04:45:52.154Z,1012.03
2017-05-02T04:47:01.188Z,1012.05
2017-05-02T04:48:10.224Z,1012.04
2017-05-02T04:49:19.181Z,1011.99
2017-05-02T04:50:28.140Z,1012.01
2017-05-02T04:51:37.483Z,1012.01
2017-05-02T04:52:46.768Z,1012
2017-05-02T04:53:55.729Z,1012.04
2017-05-02T04:55:04.683Z,1012.05
2017-05-02T04:56:13.636Z,1012.05
2017-05-02T04:57:22.979Z,1012.01
2017-05-02T04:58:32.026Z,1012.02
2017-05-02T04:59:40.983Z,1011.99
2017-05-02T05:00:50.024Z,1011.98
2017-05-02T05:01:58.984Z,1012.02
2017-05-02T05:03:08.560Z,1012.03
2017-05-02T05:04:18.172Z,1011.97
2017-05-02T05:05:27.218Z,1011.97
2017-05-02T05:06:36.166Z,1012.05
2017-05-02T05:07:45.122Z,1012.03
2017-05-02T05:08:54.382Z,1012.02
2017-05-02T05:10:03.335Z,1012.11
2017-05-02T05:11:12.291Z,1012.05
2017-05-02T05:12:21.242Z,1012.09
2017-05-02T05:13:30.194Z,1012.02
2017-05-02T05:14:39.543Z,1012.05
2017-05-02T05:15:48.497Z,1012.06
2017-05-02T05:16:57.555Z,1012.06
2017-05-02T05:18:06.604Z,1012.03
2017-05-02T05:19:15.571Z,1012.12
2017-05-02T05:20:24.778Z,1012.06
2017-05-02T05:21:33.730Z,1012.17
2017-05-02T05:22:42.693Z,1012.11
2017-05-02T05:23:51.646Z,1012.11
2017-05-02T05:25:00.602Z,1012.13
2017-05-02T05:26:09.801Z,1012.1
2017-05-02T05:27:18.846Z,1012.08
2017-05-02T05:28:27.797Z,1012
2017-05-02T05:29:36.754Z,1011.97
2017-05-02T05:30:45.710Z,1012.02
2017-05-02T05:31:54.958Z,1012.02
2017-05-02T05:33:03.906Z,1011.96
2017-05-02T05:34:12.861Z,1012.02
2017-05-02T05:35:21.818Z,1012.04
2017-05-02T05:36:30.772Z,1012.06
2017-05-02T05:37:39.998Z,1012.08
2017-05-02T05:38:48.966Z,1011.97
2017-05-02T05:39:57.921Z,1012.04
2017-05-02T05:41:06.874Z,1011.93
2017-05-02T05:42:15.826Z,1011.98
2017-05-02T05:43:25.081Z,1012.02
2017-05-02T05:44:34.128Z,1012.01
2017-05-02T05:45:43.085Z,1012.02
2017-05-02T05:46:52.036Z,1011.94
2017-05-02T05:48:00.994Z,1011.99
2017-05-02T05:49:10.345Z,1012.01
2017-05-02T05:50:19.308Z,1011.98
2017-05-02T05:51:28.263Z,1011.9
2017-05-02T05:52:37.217Z,1011.88
2017-05-02T05:53:46.173Z,1011.83
2017-05-02T05:54:55.439Z,1011.84
2017-05-02T05:56:04.397Z,1011.91
2017-05-02T05:57:13.352Z,1011.85
2017-05-02T05:58:22.391Z,1011.82
2017-05-02T05:59:31.347Z,1011.83
2017-05-02T06:00:40.598Z,1011.89
2017-05-02T06:01:49.550Z,1011.82
2017-05-02T06:02:58.509Z,1011.93
2017-05-02T06:04:07.465Z,1011.82
2017-05-02T06:05:16.420Z,1011.87
2017-05-02T06:06:25.770Z,1011.88
2017-05-02T06:07:34.730Z,1011.83
2017-05-02T06:08:43.775Z,1011.83
2017-05-02T06:09:52.730Z,1011.75
2017-05-02T06:11:01.782Z,1011.75
2017-05-02T06:12:11.311Z,1011.7
2017-05-02T06:13:20.260Z,1011.86
2017-05-02T06:14:29.308Z,1011.81
2017-05-02T06:15:38.263Z,1011.89
2017-05-02T06:16:47.223Z,1011.81
2017-05-02T06:17:56.481Z,1011.87
2017-05-02T06:19:05.438Z,1011.8
2017-05-02T06:20:14.401Z,1011.74
2017-05-02T06:21:23.351Z,1011.87
2017-05-02T06:22:32.303Z,1011.7
2017-05-02T06:23:41.553Z,1011.73
2017-05-02T06:24:50.518Z,1011.78
2017-05-02T06:25:59.478Z,1011.73
2017-05-02T06:27:08.429Z,1011.75
2017-05-02T06:28:17.701Z,1011.7
2017-05-02T06:29:26.968Z,1011.7
2017-05-02T06:30:35.925Z,1011.73
2017-05-02T06:31:45.219Z,1011.67
2017-05-02T06:32:54.180Z,1011.72
2017-05-02T06:34:03.137Z,1011.78
2017-05-02T06:35:12.403Z,1011.73
2017-05-02T06:36:21.441Z,1011.75
2017-05-02T06:37:30.394Z,1011.88
2017-05-02T06:38:39.350Z,1011.82
2017-05-02T06:39:48.303Z,1011.8
2017-05-02T06:40:57.556Z,1011.74
2017-05-02T06:42:06.515Z,1011.81
2017-05-02T06:43:15.475Z,1011.87
2017-05-02T06:44:24.439Z,1011.83
2017-05-02T06:45:33.389Z,1011.83
2017-05-02T06:46:42.594Z,1011.85
2017-05-02T06:47:51.584Z,1011.77
2017-05-02T06:49:00.538Z,1011.79
2017-05-02T06:50:09.504Z,1011.82
2017-05-02T06:51:18.456Z,1011.65
2017-05-02T06:52:27.706Z,1011.83
2017-05-02T06:53:36.669Z,1011.8
2017-05-02T06:54:45.621Z,1011.85
2017-05-02T06:55:54.584Z,1011.88
2017-05-02T06:57:03.539Z,1011.84
2017-05-02T06:58:12.798Z,1011.86
2017-05-02T06:59:21.753Z,1011.89
2017-05-02T07:00:30.716Z,1011.93
2017-05-02T07:01:39.674Z,1011.8
2017-05-02T07:02:48.628Z,1011.85
2017-05-02T07:03:57.886Z,1011.89
2017-05-02T07:05:06.849Z,1011.9
2017-05-02T07:06:15.808Z,1011.88
2017-05-02T07:07:24.765Z,1011.95
2017-05-02T07:08:33.720Z,1011.91
2017-05-02T07:09:43.063Z,1011.95
2017-05-02T07:10:52.015Z,1011.93
2017-05-02T07:12:00.978Z,1012.01
2017-05-02T07:13:09.932Z,1012.18
2017-05-02T07:14:18.893Z,1012.18
2017-05-02T07:15:28.185Z,1012.21
2017-05-02T07:16:37.141Z,1012.15
2017-05-02T07:17:46.415Z,1012.21
2017-05-02T07:18:55.382Z,1012.26
2017-05-02T07:20:04.361Z,1012.16
2017-05-02T07:21:13.620Z,1012.14
2017-05-02T07:22:22.574Z,1012.18
2017-05-02T07:23:31.526Z,1012.18
2017-05-02T07:24:40.485Z,1012.15
2017-05-02T07:25:49.440Z,1012.15
2017-05-02T07:26:58.694Z,1012.16
2017-05-02T07:28:07.647Z,1012.15
2017-05-02T07:29:16.608Z,1012.07
2017-05-02T07:30:25.561Z,1012.14
2017-05-02T07:31:34.515Z,1012.23
2017-05-02T07:32:43.776Z,1012.17
2017-05-02T07:33:52.730Z,1012.16
2017-05-02T07:35:01.696Z,1012.16
2017-05-02T07:36:10.648Z,1012.17
2017-05-02T07:37:19.605Z,1012.15
2017-05-02T07:38:28.863Z,1012.19
2017-05-02T07:39:37.817Z,1012.19
2017-05-02T07:40:46.776Z,1012.13
2017-05-02T07:41:55.729Z,1012.1
2017-05-02T07:43:04.683Z,1012.15
2017-05-02T07:44:13.888Z,1012.05
2017-05-02T07:45:22.850Z,1012.2
2017-05-02T07:46:31.803Z,1012.25
2017-05-02T07:47:40.756Z,1012.12
2017-05-02T07:48:49.712Z,1012.15
2017-05-02T07:49:58.971Z,1012.18
2017-05-02T07:51:07.927Z,1012.16
2017-05-02T07:52:16.880Z,1012.14
2017-05-02T07:53:25.843Z,1012.16
2017-05-02T07:54:34.804Z,1012.09
2017-05-02T07:55:44.141Z,1012.07
2017-05-02T07:56:53.089Z,1012.07
2017-05-02T07:58:02.058Z,1012.03
2017-05-02T07:59:11.342Z,1011.89
2017-05-02T08:00:20.296Z,1011.98
2017-05-02T08:01:29.548Z,1012
2017-05-02T08:02:38.589Z,1012.08
2017-05-02T08:03:47.869Z,1012.02
2017-05-02T08:04:56.828Z,1012.04
2017-05-02T08:06:05.794Z,1012.07
2017-05-02T08:07:15.427Z,1012.11
2017-05-02T08:08:24.381Z,1012.11
2017-05-02T08:09:33.335Z,1012.13
2017-05-02T08:10:42.285Z,1012.08
2017-05-02T08:11:51.237Z,1012.13
2017-05-02T08:13:00.494Z,1012.14
2017-05-02T08:14:09.448Z,1012.19
2017-05-02T08:15:18.407Z,1012.1
2017-05-02T08:16:27.363Z,1012.06
2017-05-02T08:17:36.318Z,1012.13
2017-05-02T08:18:45.862Z,1012.11
2017-05-02T08:19:54.815Z,1012.1
2017-05-02T08:21:04.088Z,1012.09
2017-05-02T08:22:13.219Z,1012.12
2017-05-02T08:23:22.180Z,1012.1
2017-05-02T08:24:31.438Z,1011.98
2017-05-02T08:25:40.390Z,1012.06
2017-05-02T08:26:49.343Z,1012.01
2017-05-02T08:27:58.302Z,1011.96
2017-05-02T08:29:07.252Z,1012.05
2017-05-02T08:30:16.509Z,1012.05
2017-05-02T08:31:25.463Z,1012.13
2017-05-02T08:32:34.422Z,1012.05
2017-05-02T08:33:43.392Z,1012.14
2017-05-02T08:34:52.350Z,1012.27
2017-05-02T08:36:01.615Z,1012.19
2017-05-02T08:37:10.682Z,1012.12
2017-05-02T08:38:19.648Z,1012.22
2017-05-02T08:39:28.603Z,1012.05
2017-05-02T08:40:37.655Z,1012.16
2017-05-02T08:41:46.914Z,1012.22
2017-05-02T08:42:55.873Z,1012.16
2017-05-02T08:44:04.830Z,1012.18
2017-05-02T08:45:13.796Z,1012.15
2017-05-02T08:46:22.752Z,1012.19
2017-05-02T08:47:32.010Z,1012.17
2017-05-02T08:48:40.970Z,1012.26
2017-05-02T08:49:49.928Z,1012.26
2017-05-02T08:50:58.887Z,1012.35
2017-05-02T08:52:07.844Z,1012.38
2017-05-02T08:53:17.103Z,1012.47
2017-05-02T08:54:26.069Z,1012.43
2017-05-02T08:55:35.020Z,1012.42
2017-05-02T08:56:43.973Z,1012.43
2017-05-02T08:57:52.924Z,1012.44
2017-05-02T08:59:02.266Z,1012.5
2017-05-02T09:00:11.269Z,1012.44
2017-05-02T09:01:20.227Z,1012.45
2017-05-02T09:02:29.187Z,1012.66
2017-05-02T09:03:38.139Z,1012.41
2017-05-02T09:04:47.404Z,1012.48
2017-05-02T09:05:56.451Z,1012.41
2017-05-02T09:07:05.414Z,1012.45
2017-05-02T09:08:14.689Z,1012.53
2017-05-02T09:09:23.653Z,1012.47
2017-05-02T09:10:32.907Z,1012.48
2017-05-02T09:11:41.859Z,1012.51
2017-05-02T09:12:50.815Z,1012.49
2017-05-02T09:13:59.859Z,1012.53
2017-05-02T09:15:09.151Z,1012.44
2017-05-02T09:16:18.407Z,1012.57
2017-05-02T09:17:27.362Z,1012.47
2017-05-02T09:18:36.323Z,1012.49
2017-05-02T09:19:45.285Z,1012.42
2017-05-02T09:20:54.239Z,1012.46
2017-05-02T09:22:03.441Z,1012.46
2017-05-02T09:23:12.398Z,1012.38
2017-05-02T09:24:21.353Z,1012.47
2017-05-02T09:25:30.316Z,1012.55
2017-05-02T09:26:39.280Z,1012.48
2017-05-02T09:27:48.484Z,1012.41
2017-05-02T09:28:57.438Z,1012.36
2017-05-02T09:30:06.477Z,1012.48
2017-05-02T09:31:15.433Z,1012.48
2017-05-02T09:32:24.390Z,1012.48
2017-05-02T09:33:33.977Z,1012.52
2017-05-02T09:34:42.937Z,1012.48
2017-05-02T09:35:52.221Z,1012.73
2017-05-02T09:37:01.266Z,1012.48
2017-05-02T09:38:10.220Z,1012.64
2017-05-02T09:39:19.475Z,1012.49
2017-05-02T09:40:28.446Z,1012.54
2017-05-02T09:41:37.404Z,1012.6
2017-05-02T09:42:46.449Z,1012.53
2017-05-02T09:43:55.400Z,1012.5
2017-05-02T09:45:04.608Z,1012.53
2017-05-02T09:46:13.566Z,1012.56
2017-05-02T09:47:22.523Z,1012.37
2017-05-02T09:48:31.482Z,1012.47
2017-05-02T09:49:40.531Z,1012.44
2017-05-02T09:50:49.788Z,1012.39
2017-05-02T09:51:58.739Z,1012.46
2017-05-02T09:53:07.699Z,1012.46
2017-05-02T09:54:16.670Z,1012.44
2017-05-02T09:55:25.632Z,1012.44
2017-05-02T09:56:34.974Z,1012.53
2017-05-02T09:57:44.023Z,1012.51
2017-05-02T09:58:52.987Z,1012.44
2017-05-02T10:00:01.954Z,1012.45
2017-05-02T10:01:10.911Z,1012.57
2017-05-02T10:02:20.171Z,1012.49
2017-05-02T10:03:29.127Z,1012.47
2017-05-02T10:04:38.084Z,1012.39
2017-05-02T10:05:47.037Z,1012.45
2017-05-02T10:06:56.091Z,1012.49
2017-05-02T10:08:05.438Z,1012.36
2017-05-02T10:09:14.394Z,1012.37
2017-05-02T10:10:23.351Z,1012.31
2017-05-02T10:11:32.307Z,1012.38
2017-05-02T10:12:41.588Z,1012.36
2017-05-02T10:13:50.851Z,1012.41
2017-05-02T10:14:59.806Z,1012.33
2017-05-02T10:16:09.084Z,1012.38
2017-05-02T10:17:18.045Z,1012.34
2017-05-02T10:18:27.003Z,1012.27
2017-05-02T10:19:36.012Z,1012.27
2017-05-02T10:20:44.966Z,1012.34
2017-05-02T10:21:53.920Z,1012.35
2017-05-02T10:23:02.878Z,1012.23
2017-05-02T10:24:11.837Z,1012.22
2017-05-02T10:25:20.799Z,1012.28
2017-05-02T10:26:29.761Z,1012.2
2017-05-02T10:27:39.037Z,1012.15
2017-05-02T10:28:47.992Z,1012.2
2017-05-02T10:29:56.950Z,1012.22
2017-05-02T10:31:05.954Z,1012.12
2017-05-02T10:32:15.006Z,1012.23
2017-05-02T10:33:24.050Z,1012.19
2017-05-02T10:34:33.018Z,1012.18
2017-05-02T10:35:42.063Z,1012.2
2017-05-02T10:36:51.066Z,1012.12
2017-05-02T10:38:00.019Z,1012.11
2017-05-02T10:39:08.976Z,1012.06
2017-05-02T10:40:17.933Z,1012.19
2017-05-02T10:41:26.893Z,1012.13
2017-05-02T10:42:36.579Z,1012.18
2017-05-02T10:43:45.623Z,1012.2
2017-05-02T10:44:54.578Z,1012.24
2017-05-02T10:46:03.528Z,1012.2
2017-05-02T10:47:12.493Z,1012.18
2017-05-02T10:48:21.447Z,1012.2
2017-05-02T10:49:30.405Z,1012.19
2017-05-02T10:50:39.361Z,1012.26
2017-05-02T10:51:48.327Z,1012.22
2017-05-02T10:52:57.281Z,1012.08
2017-05-02T10:54:06.295Z,1012.16
2017-05-02T10:55:15.248Z,1012.34
2017-05-02T10:56:24.206Z,1012.29
2017-05-02T10:57:33.165Z,1012.29
2017-05-02T10:58:42.123Z,1012.32
2017-05-02T10:59:51.078Z,1012.37
2017-05-02T11:01:00.043Z,1012.42
2017-05-02T11:02:09.080Z,1012.42
2017-05-02T11:03:18.034Z,1012.38
2017-05-02T11:04:27.001Z,1012.3
2017-05-02T11:05:35.957Z,1012.29
2017-05-02T11:06:44.915Z,1012.35
2017-05-02T11:07:54.299Z,1012.22
2017-05-02T11:09:03.254Z,1012.33
2017-05-02T11:10:12.205Z,1012.32
2017-05-02T11:11:21.162Z,1012.36
2017-05-02T11:12:30.207Z,1012.37
2017-05-02T11:13:39.168Z,1012.33
2017-05-02T11:14:48.123Z,1012.35
2017-05-02T11:15:57.080Z,1012.49
2017-05-02T11:17:06.039Z,1012.41
2017-05-02T11:18:15.111Z,1012.57
2017-05-02T11:19:24.069Z,1012.47
2017-05-02T11:20:33.353Z,1012.4
2017-05-02T11:21:42.306Z,1012.44
2017-05-02T11:22:51.314Z,1012.38
2017-05-02T11:24:00.598Z,1012.35
2017-05-02T11:25:09.554Z,1012.42
2017-05-02T11:26:18.600Z,1012.3
2017-05-02T11:27:27.553Z,1012.28
2017-05-02T11:28:36.517Z,1012.32
2017-05-02T11:29:45.478Z,1012.4
2017-05-02T11:30:54.431Z,1012.39
2017-05-02T11:32:03.383Z,1012.38
2017-05-02T11:33:12.340Z,1012.33
2017-05-02T11:34:21.299Z,1012.36
2017-05-02T11:35:30.261Z,1012.37
2017-05-02T11:36:39.217Z,1012.34
2017-05-02T11:37:48.174Z,1012.38
2017-05-02T11:38:57.217Z,1012.4
2017-05-02T11:40:06.172Z,1012.37
2017-05-02T11:41:15.122Z,1012.46
2017-05-02T11:42:24.078Z,1012.46
2017-05-02T11:43:33.356Z,1012.46
2017-05-02T11:44:42.316Z,1012.49
2017-05-02T11:45:51.326Z,1012.52
2017-05-02T11:47:00.283Z,1012.58
2017-05-02T11:48:09.243Z,1012.56
2017-05-02T11:49:18.199Z,1012.59
2017-05-02T11:50:27.164Z,1012.7
2017-05-02T11:51:36.255Z,1012.7
2017-05-02T11:52:45.292Z,1012.64
2017-05-02T11:53:54.249Z,1012.64
2017-05-02T11:55:03.206Z,1012.67
2017-05-02T11:56:12.157Z,1012.65
2017-05-02T11:57:21.162Z,1012.56
2017-05-02T11:58:30.115Z,1012.65
2017-05-02T11:59:39.169Z,1012.65
2017-05-02T12:00:48.123Z,1012.75
2017-05-02T12:01:57.249Z,1012.68
2017-05-02T12:03:06.252Z,1012.69
2017-05-02T12:04:15.210Z,1012.55
2017-05-02T12:05:24.165Z,1012.67
2017-05-02T12:06:33.118Z,1012.62
2017-05-02T12:07:42.078Z,1012.65
2017-05-02T12:08:51.336Z,1012.56
2017-05-02T12:10:00.709Z,1012.73
2017-05-02T12:11:09.670Z,1012.67
2017-05-02T12:12:18.622Z,1012.68
2017-05-02T12:13:27.576Z,1012.64
2017-05-02T12:14:36.925Z,1012.63
2017-05-02T12:15:45.878Z,1012.58
2017-05-02T12:16:54.916Z,1012.54
2017-05-02T12:18:03.864Z,1012.59
2017-05-02T12:19:12.832Z,1012.57
2017-05-02T12:20:22.087Z,1012.6
2017-05-02T12:21:31.129Z,1012.64
2017-05-02T12:22:40.081Z,1012.64
2017-05-02T12:23:49.041Z,1012.56
2017-05-02T12:24:58.410Z,1012.55
2017-05-02T12:26:07.616Z,1012.55
2017-05-02T12:27:16.601Z,1012.65
2017-05-02T12:28:25.552Z,1012.6
2017-05-02T12:29:34.506Z,1012.61
2017-05-02T12:30:43.456Z,1012.67
2017-05-02T12:31:52.800Z,1012.58
2017-05-02T12:33:01.758Z,1012.56
2017-05-02T12:34:10.808Z,1012.55
2017-05-02T12:35:19.801Z,1012.57
2017-05-02T12:36:28.757Z,1012.56
2017-05-02T12:37:38.099Z,1012.61
2017-05-02T12:38:47.064Z,1012.58
2017-05-02T12:39:56.022Z,1012.61
2017-05-02T12:41:04.977Z,1012.68
2017-05-02T12:42:13.932Z,1012.69
2017-05-02T12:43:23.274Z,1012.75
2017-05-02T12:44:32.234Z,1012.81
2017-05-02T12:45:41.271Z,1012.85
2017-05-02T12:46:50.218Z,1012.8
2017-05-02T12:47:59.173Z,1012.82
2017-05-02T12:49:08.433Z,1012.83
2017-05-02T12:50:17.391Z,1012.81
2017-05-02T12:51:26.344Z,1012.79
2017-05-02T12:52:35.294Z,1012.81
2017-05-02T12:53:44.331Z,1012.85
2017-05-02T12:58:02.524Z,1012.83
2017-05-02T12:59:11.483Z,1012.9
2017-05-02T13:00:20.780Z,1012.91
2017-05-02T13:01:29.732Z,1012.93
2017-05-02T13:02:38.685Z,1012.96
2017-05-02T13:03:47.721Z,1012.93
2017-05-02T13:04:56.700Z,1013
2017-05-02T13:06:05.954Z,1012.98
2017-05-02T13:07:14.908Z,1013.05
2017-05-02T13:08:23.874Z,1012.99
2017-05-02T13:09:32.830Z,1013.05
2017-05-02T13:10:41.782Z,1013.02
2017-05-02T13:11:51.036Z,1013.06
2017-05-02T13:13:00.072Z,1013.02
2017-05-02T13:14:09.028Z,1013.01
2017-05-02T13:15:18.084Z,1013.14
2017-05-02T13:16:27.124Z,1013.03
2017-05-02T13:17:36.373Z,1013.14
2017-05-02T13:18:45.328Z,1013.12
2017-05-02T13:19:54.281Z,1013.09
2017-05-02T13:21:03.323Z,1013.13
2017-05-02T13:22:12.373Z,1013.13
2017-05-02T13:23:21.577Z,1013.11
2017-05-02T13:24:30.535Z,1013.16
2017-05-02T13:25:39.491Z,1013.1
2017-05-02T13:26:48.531Z,1013.11
2017-05-02T13:27:57.487Z,1013.17
2017-05-02T13:29:06.743Z,1013.12
2017-05-02T13:30:15.701Z,1013.06
2017-05-02T13:31:24.650Z,1013.11
2017-05-02T13:32:33.605Z,1013.13
2017-05-02T13:33:42.559Z,1013.07
2017-05-02T13:34:52.150Z,1013.03
2017-05-02T13:36:01.192Z,1013.07
2017-05-02T13:37:10.234Z,1013.1
2017-05-02T13:38:19.180Z,1013.07
2017-05-02T13:39:28.140Z,1013.09
2017-05-02T13:40:37.391Z,1013.12
2017-05-02T13:41:46.340Z,1013.12
2017-05-02T13:42:55.461Z,1013.1
2017-05-02T13:44:04.425Z,1013.12
2017-05-02T13:45:13.377Z,1013.11
2017-05-02T13:46:22.630Z,1013.19
2017-05-02T13:47:31.581Z,1013.13
2017-05-02T13:48:40.635Z,1013.14
2017-05-02T13:49:49.591Z,1013.13
2017-05-02T13:50:58.549Z,1013.15
2017-05-02T13:52:07.975Z,1013.15
2017-05-02T13:53:16.931Z,1013.15
2017-05-02T13:54:25.884Z,1013.13
2017-05-02T13:55:34.842Z,1013.13
2017-05-02T13:56:43.794Z,1013.14
2017-05-02T13:57:53.085Z,1013.16
2017-05-02T13:59:02.036Z,1013.12
2017-05-02T14:00:10.991Z,1013.17
2017-05-02T14:01:19.941Z,1013.17